createdAt,value
2022-08-10T00:02:12.899Z,3.80
2022-08-10T00:04:39.499Z,3.35
2022-08-10T00:07:06.084Z,3.53
2022-08-10T00:09:32.727Z,3.60
2022-08-10T00:12:16.918Z,3.90
2022-08-10T00:14:43.510Z,3.78
2022-08-10T00:17:10.080Z,3.40
2022-08-10T00:20:04.296Z,3.50
2022-08-10T00:22:23.423Z,3.25
2022-08-10T00:24:50.126Z,3.35
2022-08-10T00:28:01.504Z,3.58
2022-08-10T00:30:05.847Z,3.47
2022-08-10T00:32:32.928Z,3.47
2022-08-10T00:34:59.699Z,3.63
2022-08-10T00:37:26.426Z,3.80
2022-08-10T00:39:53.132Z,3.63
2022-08-10T00:42:19.826Z,4.00
2022-08-10T00:44:50.379Z,3.70
2022-08-10T00:47:37.322Z,4.15
2022-08-10T00:50:07.225Z,3.45
2022-08-10T00:52:35.628Z,3.80
2022-08-10T00:55:03.484Z,4.05
2022-08-10T00:57:31.026Z,3.53
2022-08-10T01:00:00.141Z,3.97
2022-08-10T01:02:32.963Z,3.35
2022-08-10T01:05:07.701Z,4.07
2022-08-10T01:07:50.900Z,3.80
2022-08-10T01:10:34.857Z,4.53
2022-08-10T01:13:28.170Z,3.13
2022-08-10T01:16:28.757Z,3.47
2022-08-10T01:19:09.600Z,4.00
2022-08-10T01:22:01.145Z,3.60
2022-08-10T01:24:52.600Z,3.75
2022-08-10T01:27:29.022Z,4.95
2022-08-10T01:30:08.444Z,3.80
2022-08-10T01:32:46.415Z,4.35
2022-08-10T01:35:33.299Z,4.40
2022-08-10T01:38:06.272Z,3.78
2022-08-10T01:40:37.034Z,3.80
2022-08-10T01:43:08.917Z,3.83
2022-08-10T01:45:45.123Z,3.60
2022-08-10T01:48:28.330Z,4.03
2022-08-10T01:51:09.626Z,3.58
2022-08-10T01:53:51.902Z,3.67
2022-08-10T01:56:21.535Z,3.92
2022-08-10T01:59:01.284Z,3.60
2022-08-10T02:01:32.499Z,3.83
2022-08-10T02:04:06.263Z,4.00
2022-08-10T02:06:38.502Z,4.18
2022-08-10T02:09:07.646Z,3.80
2022-08-10T02:11:55.799Z,4.28
2022-08-10T02:14:34.115Z,3.85
2022-08-10T02:17:07.905Z,4.25
2022-08-10T02:19:38.515Z,3.88
2022-08-10T02:22:35.181Z,4.10
2022-08-10T02:24:56.090Z,3.63
2022-08-10T02:27:24.621Z,3.83
2022-08-10T02:29:53.745Z,4.13
2022-08-10T02:32:30.771Z,4.10
2022-08-10T02:35:13.988Z,3.70
2022-08-10T02:37:51.402Z,4.60
2022-08-10T02:45:12.824Z,4.25
2022-08-10T02:45:22.694Z,3.83
2022-08-10T02:46:08.436Z,3.92
2022-08-10T02:48:44.775Z,5.90
2022-08-10T02:52:06.523Z,3.70
2022-08-10T02:54:25.217Z,4.10
2022-08-10T02:57:06.462Z,4.18
2022-08-10T02:59:40.251Z,3.58
2022-08-10T03:02:12.066Z,4.00
2022-08-10T03:04:56.098Z,3.95
2022-08-10T03:07:43.957Z,3.70
2022-08-10T03:10:17.541Z,4.25
2022-08-10T03:12:48.767Z,4.43
2022-08-10T03:15:18.566Z,4.00
2022-08-10T03:17:57.895Z,3.90
2022-08-10T03:20:37.925Z,4.10
2022-08-10T03:23:16.120Z,4.47
2022-08-10T03:25:52.746Z,3.85
2022-08-10T03:28:27.646Z,3.92
2022-08-10T03:30:55.569Z,4.50
2022-08-10T03:33:24.291Z,4.18
2022-08-10T03:36:43.834Z,3.67
2022-08-10T03:38:40.642Z,4.00
2022-08-10T03:41:11.581Z,3.97
2022-08-10T03:43:47.616Z,4.13
2022-08-10T03:46:18.317Z,4.30
2022-08-10T03:48:48.987Z,4.10
2022-08-10T03:51:18.934Z,4.20
2022-08-10T03:54:05.093Z,3.90
2022-08-10T03:56:34.985Z,4.60
2022-08-10T03:59:02.354Z,4.40
2022-08-10T04:02:43.630Z,4.18
2022-08-10T04:04:22.749Z,4.03
2022-08-10T04:06:54.915Z,3.63
2022-08-10T04:09:29.670Z,4.25
2022-08-10T04:12:10.243Z,4.25
2022-08-10T04:14:49.133Z,4.03
2022-08-10T04:17:16.914Z,4.45
2022-08-10T04:19:49.182Z,4.18
2022-08-10T04:22:20.007Z,3.65
2022-08-10T04:24:49.767Z,4.00
2022-08-10T04:27:16.850Z,3.95
2022-08-10T04:29:44.579Z,4.43
2022-08-10T04:32:12.713Z,3.95
2022-08-10T04:34:44.102Z,4.10
2022-08-10T04:37:13.040Z,4.28
2022-08-10T04:39:40.267Z,4.20
2022-08-10T04:42:07.342Z,4.30
2022-08-10T04:44:34.524Z,4.43
2022-08-10T04:47:01.107Z,4.63
2022-08-10T04:49:54.811Z,4.03
2022-08-10T04:52:14.925Z,3.78
2022-08-10T04:54:41.673Z,4.43
2022-08-10T04:57:09.039Z,4.03
2022-08-10T04:59:35.783Z,4.75
2022-08-10T05:02:30.608Z,4.63
2022-08-10T05:04:49.080Z,4.43
2022-08-10T05:07:18.388Z,4.30
2022-08-10T05:10:02.110Z,4.60
2022-08-10T05:12:38.002Z,4.97
2022-08-10T05:15:10.566Z,4.40
2022-08-10T05:17:39.090Z,4.60
2022-08-10T05:20:08.630Z,4.78
2022-08-10T05:22:37.838Z,4.72
2022-08-10T05:25:06.386Z,4.53
2022-08-10T05:27:33.865Z,4.40
2022-08-10T05:30:02.340Z,4.30
2022-08-10T05:32:31.665Z,4.35
2022-08-10T05:34:58.366Z,4.90
2022-08-10T05:38:10.782Z,4.22
2022-08-10T05:40:12.979Z,4.78
2022-08-10T05:42:41.084Z,4.50
2022-08-10T05:45:22.406Z,4.63
2022-08-10T05:48:55.065Z,4.20
2022-08-10T05:50:36.004Z,4.70
2022-08-10T05:53:59.623Z,5.70
2022-08-10T05:55:49.482Z,4.40
2022-08-10T05:58:16.268Z,4.88
2022-08-10T06:00:50.069Z,4.63
2022-08-10T06:03:24.210Z,4.47
2022-08-10T06:05:58.256Z,4.88
2022-08-10T06:08:28.590Z,4.35
2022-08-10T06:12:26.565Z,4.03
2022-08-10T06:14:13.804Z,4.55
2022-08-10T06:16:44.546Z,4.30
2022-08-10T06:19:15.065Z,4.10
2022-08-10T06:21:53.684Z,4.72
2022-08-10T06:24:31.155Z,4.28
2022-08-10T06:26:59.211Z,4.10
2022-08-10T06:29:27.227Z,4.35
2022-08-10T06:31:55.814Z,4.50
2022-08-10T06:34:31.975Z,4.53
2022-08-10T06:37:04.464Z,4.50
2022-08-10T06:39:34.512Z,4.85
2022-08-10T06:42:16.718Z,4.32
2022-08-10T06:45:00.591Z,4.20
2022-08-10T06:47:37.345Z,4.20
2022-08-10T06:50:12.380Z,4.30
2022-08-10T06:52:41.279Z,4.18
2022-08-10T06:55:12.660Z,4.18
2022-08-10T06:57:44.798Z,4.15
2022-08-10T07:00:33.500Z,4.15
2022-08-10T07:03:07.991Z,4.00
2022-08-10T07:05:42.898Z,4.20
2022-08-10T07:08:10.882Z,4.22
2022-08-10T07:10:46.120Z,4.07
2022-08-10T07:13:16.550Z,3.85
2022-08-10T07:16:05.547Z,4.60
2022-08-10T07:18:33.754Z,5.05
2022-08-10T07:21:02.077Z,4.35
2022-08-10T07:23:57.240Z,4.10
2022-08-10T07:26:19.321Z,4.20
2022-08-10T07:28:48.532Z,4.57
2022-08-10T07:31:31.095Z,4.35
2022-08-10T07:34:07.310Z,3.93
2022-08-10T07:36:37.130Z,4.40
2022-08-10T07:39:05.290Z,3.87
2022-08-10T07:41:34.809Z,3.70
2022-08-10T07:44:04.331Z,4.65
2022-08-10T07:46:35.310Z,3.90
2022-08-10T07:49:16.736Z,4.28
2022-08-10T07:51:54.645Z,3.70
2022-08-10T07:54:24.136Z,3.90
2022-08-10T07:56:53.626Z,4.05
2022-08-10T07:59:31.951Z,4.13
2022-08-10T08:02:01.288Z,6.22
2022-08-10T08:04:29.874Z,5.00
2022-08-10T08:06:59.867Z,4.82
2022-08-10T08:09:28.527Z,3.90
2022-08-10T08:11:56.990Z,4.88
2022-08-10T08:14:24.810Z,4.10
2022-08-10T08:16:53.931Z,3.72
2022-08-10T08:19:37.893Z,4.68
2022-08-10T08:24:10.074Z,4.35
2022-08-10T08:24:58.770Z,4.57
2022-08-10T08:27:27.411Z,4.10
2022-08-10T08:29:54.875Z,4.43
2022-08-10T08:32:24.436Z,4.50
2022-08-10T08:34:57.783Z,3.92
2022-08-10T08:38:32.517Z,4.32
2022-08-10T08:40:29.842Z,4.32
2022-08-10T08:43:18.831Z,4.18
2022-08-10T08:46:03.316Z,3.92
2022-08-10T08:48:44.217Z,4.00
2022-08-10T08:52:11.402Z,3.95
2022-08-10T08:54:42.677Z,3.80
2022-08-10T08:57:49.416Z,4.50
2022-08-10T09:00:37.632Z,4.28
2022-08-10T09:03:30.521Z,3.60
2022-08-10T09:06:06.206Z,3.63
2022-08-10T09:08:51.515Z,4.10
2022-08-10T09:11:50.743Z,3.80
2022-08-10T09:14:38.610Z,3.63
2022-08-10T09:17:24.971Z,3.70
2022-08-10T09:20:07.919Z,3.72
2022-08-10T09:22:43.955Z,3.58
2022-08-10T09:25:16.793Z,3.47
2022-08-10T09:28:04.648Z,3.60
2022-08-10T09:31:18.629Z,3.25
2022-08-10T09:36:26.375Z,3.95
2022-08-10T09:36:51.126Z,3.40
2022-08-10T09:40:12.449Z,4.03
2022-08-10T09:42:18.744Z,3.88
2022-08-10T09:45:09.889Z,4.57
2022-08-10T09:48:01.488Z,3.80
2022-08-10T09:54:10.167Z,3.72
2022-08-10T09:57:44.747Z,4.20
2022-08-10T10:00:14.351Z,4.00
2022-08-10T10:03:13.802Z,4.05
2022-08-10T10:05:59.643Z,4.10
2022-08-10T10:08:32.321Z,4.00
2022-08-10T10:11:12.087Z,3.90
2022-08-10T10:14:03.438Z,3.88
2022-08-10T10:17:01.018Z,3.90
2022-08-10T10:19:49.752Z,3.90
2022-08-10T10:22:45.724Z,4.05
2022-08-10T10:25:50.706Z,3.70
2022-08-10T10:28:44.356Z,3.65
2022-08-10T10:31:31.958Z,3.95
2022-08-10T10:34:17.111Z,3.47
2022-08-10T10:36:45.969Z,3.40
2022-08-10T10:39:14.290Z,3.90
2022-08-10T10:41:57.475Z,3.45
2022-08-10T10:44:56.258Z,4.43
2022-08-10T10:47:46.519Z,3.92
2022-08-10T10:50:18.329Z,3.88
2022-08-10T10:53:22.730Z,3.88
2022-08-10T10:56:19.227Z,3.58
2022-08-10T10:59:53.975Z,3.75
2022-08-10T11:02:16.582Z,3.42
2022-08-10T11:05:17.912Z,3.50
2022-08-10T11:14:27.101Z,4.10
2022-08-10T11:16:13.774Z,3.88
2022-08-10T11:19:23.185Z,3.60
2022-08-10T11:22:17.535Z,3.97
2022-08-10T11:24:58.237Z,3.78
2022-08-10T11:27:30.805Z,3.80
2022-08-10T11:30:13.610Z,3.95
2022-08-10T11:33:09.658Z,3.65
2022-08-10T11:35:53.736Z,4.72
2022-08-10T11:38:51.970Z,4.30
2022-08-10T11:42:08.767Z,3.88
2022-08-10T11:45:11.348Z,4.70
2022-08-10T11:47:46.581Z,3.40
2022-08-10T11:50:20.988Z,4.05
2022-08-10T11:53:09.382Z,4.13
2022-08-10T11:55:36.251Z,4.30
2022-08-10T11:58:29.645Z,4.00
2022-08-10T12:00:59.402Z,3.53
2022-08-10T12:03:31.382Z,3.50
2022-08-10T12:06:04.372Z,4.05
2022-08-10T12:11:25.613Z,4.13
2022-08-10T12:14:20.994Z,3.90
2022-08-10T12:16:52.709Z,4.55
2022-08-10T12:19:27.439Z,3.55
2022-08-10T12:22:10.773Z,3.47
2022-08-10T12:24:49.600Z,3.55
2022-08-10T12:27:31.121Z,3.42
2022-08-10T12:30:09.494Z,3.50
2022-08-10T12:33:03.131Z,3.90
2022-08-10T12:35:38.007Z,3.58
2022-08-10T12:38:21.441Z,4.20
2022-08-10T12:41:05.080Z,4.18
2022-08-10T12:44:06.742Z,3.55
2022-08-10T12:46:57.009Z,4.00
2022-08-10T13:16:14.855Z,3.80
2022-08-10T13:57:58.515Z,3.50
2022-08-10T14:00:38.603Z,3.35
2022-08-10T14:03:10.892Z,3.40
2022-08-10T14:05:51.954Z,3.75
2022-08-10T14:08:23.178Z,3.33
2022-08-10T14:11:08.330Z,4.07
2022-08-10T14:13:43.302Z,3.55
2022-08-10T14:16:11.871Z,3.33
2022-08-10T14:18:42.188Z,3.63
2022-08-10T14:21:09.175Z,3.50
2022-08-10T14:23:40.686Z,3.40
2022-08-10T14:26:09.441Z,3.22
2022-08-10T14:28:45.623Z,3.90
2022-08-10T14:31:18.637Z,3.63
2022-08-10T14:33:55.262Z,3.40
2022-08-10T14:36:43.577Z,3.53
2022-08-10T14:39:22.678Z,3.72
2022-08-10T14:42:02.801Z,3.53
2022-08-10T14:44:43.923Z,3.60
2022-08-10T14:47:55.950Z,3.22
2022-08-10T14:50:03.111Z,3.40
2022-08-10T14:52:38.839Z,3.40
2022-08-10T14:55:19.623Z,3.40
2022-08-10T14:58:17.092Z,3.38
2022-08-10T15:00:42.820Z,3.90
2022-08-10T15:03:58.916Z,3.40
2022-08-10T15:06:07.501Z,3.80
2022-08-10T15:08:47.038Z,3.60
2022-08-10T15:12:12.288Z,4.10
2022-08-10T15:14:41.707Z,3.88
2022-08-10T15:16:56.179Z,4.15
2022-08-10T15:20:01.208Z,3.90
2022-08-10T15:22:36.632Z,3.67
2022-08-10T15:25:04.869Z,3.53
2022-08-10T15:27:54.270Z,4.15
2022-08-10T15:30:32.020Z,3.70
2022-08-10T15:34:03.820Z,3.53
2022-08-10T15:36:38.883Z,3.58
2022-08-10T15:40:22.337Z,3.75
2022-08-10T15:42:09.244Z,4.00
2022-08-10T15:44:42.402Z,4.22
2022-08-10T15:47:46.073Z,3.30
2022-08-10T15:50:18.773Z,3.60
2022-08-10T15:53:00.683Z,3.63
2022-08-10T15:55:41.894Z,3.33
2022-08-10T15:58:19.498Z,3.50
2022-08-10T16:00:55.369Z,3.63
2022-08-10T16:03:37.504Z,3.25
2022-08-10T16:06:07.475Z,3.50
2022-08-10T16:08:56.631Z,3.83
2022-08-10T16:11:38.282Z,3.33
2022-08-10T16:14:15.427Z,3.30
2022-08-10T16:16:47.652Z,3.08
2022-08-10T16:19:24.161Z,3.47
2022-08-10T16:21:56.908Z,3.25
2022-08-10T16:24:25.014Z,4.85
2022-08-10T16:26:54.548Z,3.65
2022-08-10T16:29:26.830Z,3.70
2022-08-10T16:31:59.710Z,3.63
2022-08-10T16:34:29.258Z,3.20
2022-08-10T16:37:11.148Z,3.60
2022-08-10T16:40:00.212Z,3.17
2022-08-10T16:42:31.708Z,4.45
2022-08-10T16:45:12.082Z,3.63
2022-08-10T16:50:28.930Z,3.75
2022-08-10T16:53:00.367Z,3.08
2022-08-10T16:55:49.071Z,3.40
2022-08-10T16:58:21.835Z,3.35
2022-08-10T17:00:50.269Z,3.47
2022-08-10T17:04:06.906Z,3.90
2022-08-10T17:06:18.007Z,4.90
2022-08-10T17:08:49.562Z,6.13
2022-08-10T17:11:18.651Z,4.00
2022-08-10T17:13:45.612Z,3.35
2022-08-10T17:16:14.409Z,3.72
2022-08-10T17:18:46.590Z,3.28
2022-08-10T17:21:28.014Z,11.10
2022-08-10T17:23:58.076Z,11.05
2022-08-10T17:26:37.255Z,7.40
2022-08-10T17:29:58.112Z,3.47
2022-08-10T17:32:44.248Z,3.67
2022-08-10T17:35:22.486Z,3.58
2022-08-10T17:38:08.065Z,4.32
2022-08-10T17:40:44.705Z,3.70
2022-08-10T17:43:12.357Z,3.50
2022-08-10T17:46:01.376Z,3.75
2022-08-10T17:48:32.515Z,3.50
2022-08-10T17:51:01.070Z,3.60
2022-08-10T17:53:56.346Z,3.53
2022-08-10T17:56:24.003Z,3.53
2022-08-10T17:58:56.143Z,3.45
2022-08-10T18:01:41.878Z,3.65
2022-08-10T18:04:18.100Z,4.55
2022-08-10T18:06:52.049Z,5.20
2022-08-10T18:09:29.183Z,4.05
2022-08-10T18:12:02.002Z,3.38
2022-08-10T18:14:33.346Z,4.30
2022-08-10T18:17:10.025Z,3.45
2022-08-10T18:19:38.166Z,3.40
2022-08-10T18:22:06.336Z,3.58
2022-08-10T18:24:36.886Z,3.75
2022-08-10T18:27:05.551Z,3.70
2022-08-10T18:29:34.901Z,3.40
2022-08-10T18:32:03.178Z,3.67
2022-08-10T18:34:32.747Z,3.50
2022-08-10T18:37:00.807Z,3.28
2022-08-10T18:39:32.180Z,3.30
2022-08-10T18:42:07.151Z,3.75
2022-08-10T18:44:37.471Z,3.55
2022-08-10T18:47:10.675Z,3.55
2022-08-10T18:49:37.214Z,3.70
2022-08-10T18:52:08.576Z,3.80
2022-08-10T18:54:45.344Z,3.33
2022-08-10T18:57:36.163Z,3.20
2022-08-10T19:02:53.830Z,3.45
2022-08-10T19:05:30.896Z,3.55
2022-08-10T19:08:49.064Z,3.65
2022-08-10T19:12:05.327Z,3.58
2022-08-10T19:15:10.899Z,4.07
2022-08-10T19:18:03.306Z,3.60
2022-08-10T19:20:41.215Z,3.60
2022-08-10T19:23:23.154Z,5.55
2022-08-10T19:26:33.010Z,3.95
2022-08-10T19:29:09.964Z,3.63
2022-08-10T19:31:53.888Z,3.78
2022-08-10T19:34:58.329Z,4.10
2022-08-10T19:37:41.388Z,4.32
2022-08-10T19:40:21.640Z,3.72
2022-08-10T19:44:01.832Z,3.45
2022-08-10T19:46:47.357Z,3.92
2022-08-10T19:49:57.390Z,3.58
2022-08-10T19:52:42.630Z,3.47
2022-08-10T19:55:17.572Z,3.60
2022-08-10T19:57:54.684Z,3.85
2022-08-10T20:00:27.006Z,4.20
2022-08-10T20:03:16.987Z,3.55
2022-08-10T20:06:19.862Z,3.60
2022-08-10T20:09:00.837Z,4.57
2022-08-10T20:11:49.633Z,4.72
2022-08-10T20:14:22.838Z,3.97
2022-08-10T20:16:52.506Z,4.03
2022-08-10T20:19:56.181Z,3.70
2022-08-10T20:22:29.614Z,3.55
2022-08-10T20:25:29.935Z,3.80
2022-08-10T20:28:05.717Z,3.58
2022-08-10T20:30:35.778Z,4.10
2022-08-10T20:33:10.320Z,3.83
2022-08-10T20:35:56.716Z,3.90
2022-08-10T20:38:46.213Z,3.53
2022-08-10T20:41:25.471Z,3.72
2022-08-10T20:44:02.727Z,3.60
2022-08-10T20:47:05.473Z,3.80
2022-08-10T20:49:58.333Z,3.78
2022-08-10T20:52:26.151Z,3.45
2022-08-10T20:54:58.000Z,3.75
2022-08-10T20:57:54.646Z,3.55
2022-08-10T21:00:30.204Z,3.50
2022-08-10T21:03:31.427Z,3.55
2022-08-10T21:06:41.459Z,3.50
2022-08-10T21:09:23.729Z,3.58
2022-08-10T21:12:20.147Z,4.22
2022-08-10T21:15:13.509Z,4.25
2022-08-10T21:17:58.890Z,4.47
2022-08-10T21:20:47.437Z,5.50
2022-08-10T21:25:41.674Z,4.78
2022-08-10T21:26:29.573Z,5.82
2022-08-10T21:29:05.749Z,5.63
2022-08-10T21:31:50.398Z,6.18
2022-08-10T21:34:31.873Z,6.80
2022-08-10T21:37:07.868Z,6.32
2022-08-10T21:39:42.262Z,6.20
2022-08-10T21:42:37.727Z,5.63
2022-08-10T21:45:59.246Z,7.05
2022-08-10T21:48:57.091Z,5.07
2022-08-10T21:52:03.889Z,5.55
2022-08-10T21:55:03.445Z,6.00
2022-08-10T21:58:28.528Z,5.25
2022-08-10T22:01:23.478Z,5.10
2022-08-10T22:04:25.090Z,5.82
2022-08-10T22:07:11.153Z,5.07
2022-08-10T22:10:02.901Z,5.05
2022-08-10T22:12:57.612Z,5.38
2022-08-10T22:16:09.909Z,4.75
2022-08-10T22:19:02.339Z,5.47
2022-08-10T22:22:19.764Z,4.90
2022-08-10T22:25:27.494Z,4.97
2022-08-10T22:28:18.087Z,4.67
2022-08-10T22:31:33.612Z,5.03
2022-08-10T22:34:53.313Z,4.95
2022-08-10T22:38:08.325Z,4.10
2022-08-10T22:40:53.857Z,5.50
2022-08-10T22:43:46.286Z,5.13
2022-08-10T22:46:38.873Z,4.93
2022-08-10T22:49:05.868Z,3.95
2022-08-10T22:51:49.017Z,4.32
2022-08-10T22:54:38.268Z,4.65
2022-08-10T22:57:29.719Z,4.57
2022-08-10T22:59:56.460Z,5.10
2022-08-10T23:02:34.342Z,4.88
2022-08-10T23:05:11.994Z,4.63
2022-08-10T23:08:05.879Z,4.32
2022-08-10T23:10:39.072Z,4.88
2022-08-10T23:13:11.149Z,4.90
2022-08-10T23:16:01.893Z,4.88
2022-08-10T23:18:58.687Z,4.40
2022-08-10T23:22:03.241Z,4.35
2022-08-10T23:24:43.988Z,4.88
2022-08-10T23:27:39.356Z,4.50
2022-08-10T23:30:09.875Z,4.55
2022-08-10T23:32:45.307Z,4.65
2022-08-10T23:36:31.179Z,4.63
2022-08-10T23:38:10.771Z,4.15
2022-08-10T23:40:43.451Z,4.82
2022-08-10T23:43:16.784Z,4.75
2022-08-10T23:45:52.465Z,4.22
2022-08-10T23:48:25.514Z,4.97
2022-08-10T23:50:58.386Z,5.63
2022-08-10T23:53:55.906Z,4.30
2022-08-10T23:56:27.306Z,4.40
2022-08-10T23:58:55.885Z,5.25
